Marion, South Dakota
Current Conditions -  °F | °C
As of 9:56 AM on Sunday 23 Nov 2014 (Local Time) from KFSD Reporting Station
Light Rain Light Rain  
Wind Chill: 31°   Ceiling: 4200
Heat Index: 40°   Visibility: 10mi
Dew Point: 37°   Wind: 17mph
Humidity: 89%   Direction: 300°WNW
Pressure: 29.54"   Gusts: NA
Location:  43.42°N, 97.26°W
Report Text: KFSD 231556Z 30015KT 10SM -RA OVC042 04/03 A2954 RMK AO2 SLP012 P0007 T00440028
Loading
Personal Weather Stations






























Interactive Weather Map New forecast layout! Learn more

10-Day Weather Forecast

Advertisements
Track Severe Weather on mobile